createdAt,value
2022-12-19T13:27:05.130Z,21.11
2022-12-19T13:29:52.263Z,20.97
2022-12-19T13:32:22.173Z,20.79
2022-12-19T13:35:10.592Z,20.57
2022-12-19T13:39:59.351Z,20.43
2022-12-19T13:40:58.452Z,20.25
2022-12-19T13:43:48.574Z,20.04
2022-12-19T13:46:47.893Z,19.94
2022-12-19T13:49:25.103Z,19.80
2022-12-19T13:51:59.624Z,19.71
2022-12-19T13:59:13.393Z,20.30
2022-12-19T14:01:41.709Z,20.66
2022-12-19T14:04:32.367Z,20.90
2022-12-19T14:07:07.006Z,20.92
2022-12-19T14:11:33.117Z,20.88
2022-12-19T14:13:53.142Z,21.00
2022-12-19T14:15:44.885Z,21.12
2022-12-19T14:18:44.333Z,21.25
2022-12-19T14:22:05.173Z,21.37
2022-12-19T14:24:22.736Z,21.49
2022-12-19T14:28:17.825Z,21.57
2022-12-19T14:30:28.446Z,21.60
2022-12-19T14:33:44.123Z,21.64
2022-12-19T14:36:06.107Z,21.63
2022-12-19T14:39:22.476Z,21.64
2022-12-19T14:42:04.567Z,21.67
2022-12-19T14:54:08.900Z,21.77
2022-12-19T14:54:08.900Z,21.73
2022-12-19T14:54:13.431Z,21.73
2022-12-19T14:54:52.537Z,21.72
2022-12-19T14:59:01.732Z,21.66
2022-12-19T15:01:54.366Z,21.58
2022-12-19T15:04:47.788Z,21.47
2022-12-19T15:07:24.367Z,21.34
2022-12-19T15:11:04.266Z,21.33
2022-12-19T15:14:47.192Z,21.19
2022-12-19T15:16:08.150Z,21.10
2022-12-19T15:18:41.152Z,20.98
2022-12-19T15:21:15.651Z,20.98
2022-12-19T15:23:44.898Z,20.90
2022-12-19T15:26:15.142Z,20.78
2022-12-19T15:28:51.263Z,20.67
2022-12-19T15:31:35.279Z,20.63
2022-12-19T15:34:51.982Z,20.51
2022-12-19T15:37:13.572Z,20.43
2022-12-19T15:39:41.694Z,20.37
2022-12-19T15:42:23.557Z,20.20
2022-12-19T15:44:52.228Z,20.09
2022-12-19T15:47:34.414Z,20.01
2022-12-19T15:50:07.163Z,19.87
2022-12-19T15:52:39.545Z,19.78
2022-12-19T15:55:07.875Z,19.62
2022-12-19T15:57:37.305Z,19.52
2022-12-19T16:00:23.813Z,19.48
2022-12-19T16:05:39.301Z,19.38
2022-12-19T16:08:15.249Z,19.30
2022-12-19T16:10:48.228Z,19.31
2022-12-19T16:13:31.053Z,19.25
2022-12-19T16:16:46.683Z,19.26
2022-12-19T16:19:30.185Z,19.24
2022-12-19T16:21:58.215Z,19.16
2022-12-19T16:24:26.946Z,19.16
2022-12-19T16:26:59.326Z,19.03
2022-12-19T16:29:29.178Z,19.09
2022-12-19T16:32:03.953Z,19.00
2022-12-19T16:34:31.648Z,18.94
2022-12-19T16:36:59.093Z,18.88
2022-12-19T16:39:26.975Z,18.77
2022-12-19T16:41:54.874Z,18.70
2022-12-19T16:44:23.623Z,18.61
2022-12-19T16:46:51.779Z,18.65
2022-12-19T16:49:21.056Z,18.59
2022-12-19T16:51:49.572Z,18.55
2022-12-19T16:54:17.654Z,18.54
2022-12-19T16:56:52.514Z,18.50
2022-12-19T16:59:28.601Z,18.35
2022-12-19T17:01:56.437Z,18.34
2022-12-19T17:04:25.713Z,18.38
2022-12-19T17:06:56.208Z,18.27
2022-12-19T17:09:25.016Z,18.26
2022-12-19T17:11:59.436Z,18.19
2022-12-19T17:14:27.877Z,18.12
2022-12-19T17:17:00.731Z,18.07
2022-12-19T17:19:34.772Z,17.94
2022-12-19T17:22:02.425Z,17.84
2022-12-19T17:24:30.025Z,17.90
2022-12-19T17:26:58.490Z,17.79
2022-12-19T17:29:26.099Z,17.74
2022-12-19T17:31:53.641Z,17.71
2022-12-19T17:34:30.047Z,17.66
2022-12-19T17:37:01.187Z,17.59
2022-12-19T17:39:30.985Z,17.55
2022-12-19T17:42:00.297Z,17.43
2022-12-19T17:44:29.303Z,17.39
2022-12-19T17:46:57.046Z,17.42
2022-12-19T17:49:27.964Z,17.37
2022-12-19T17:51:57.317Z,17.32
2022-12-19T17:54:25.278Z,17.27
2022-12-19T17:56:53.299Z,17.27
2022-12-19T17:59:23.366Z,17.22
2022-12-19T18:01:51.139Z,17.17
2022-12-19T18:04:21.505Z,17.15
2022-12-19T18:06:50.477Z,17.14
2022-12-19T18:09:38.677Z,17.16
2022-12-19T18:12:07.392Z,17.18
2022-12-19T18:14:35.032Z,17.16
2022-12-19T18:17:03.030Z,17.23
2022-12-19T18:19:33.997Z,17.22
2022-12-19T18:22:01.553Z,17.25
2022-12-19T18:24:29.227Z,17.26
2022-12-19T18:26:58.648Z,17.29
2022-12-19T18:29:27.305Z,17.29
2022-12-19T18:31:57.548Z,17.32
2022-12-19T18:34:35.687Z,17.32
2022-12-19T18:37:06.832Z,17.35
2022-12-19T18:39:39.001Z,17.35
2022-12-19T18:42:32.561Z,17.37
2022-12-19T18:45:00.116Z,17.34
2022-12-19T18:47:28.310Z,17.33
2022-12-19T18:49:58.353Z,17.34
2022-12-19T18:52:27.235Z,17.38
2022-12-19T18:54:54.862Z,17.36
2022-12-19T18:57:22.450Z,17.38
2022-12-19T18:59:51.647Z,17.37
2022-12-19T19:02:28.995Z,17.41
2022-12-19T19:04:57.558Z,17.42
2022-12-19T19:07:25.956Z,17.37
2022-12-19T19:09:54.901Z,17.38
2022-12-19T19:12:26.920Z,17.36
2022-12-19T19:14:54.799Z,17.36
2022-12-19T19:17:28.527Z,17.39
2022-12-19T19:19:55.988Z,17.36
2022-12-19T19:22:25.620Z,17.39
2022-12-19T19:24:53.839Z,17.37
2022-12-19T19:27:21.586Z,17.35
2022-12-19T19:29:49.267Z,17.35
2022-12-19T19:32:17.375Z,17.34
2022-12-19T19:34:45.924Z,17.36
2022-12-19T19:37:16.377Z,17.36
2022-12-19T19:39:45.439Z,17.36
2022-12-19T19:42:14.221Z,17.32
2022-12-19T19:44:56.003Z,17.36
2022-12-19T19:47:32.233Z,17.36
2022-12-19T19:50:01.209Z,17.34
2022-12-19T19:52:30.789Z,17.34
2022-12-19T19:55:16.551Z,17.36
2022-12-19T19:57:49.178Z,17.36
2022-12-19T20:00:19.060Z,17.35
2022-12-19T20:26:38.587Z,17.37
2022-12-19T21:28:15.004Z,17.33
2022-12-19T21:49:45.780Z,17.29
2022-12-19T22:03:48.205Z,17.39
2022-12-19T22:07:15.466Z,17.40
2022-12-19T22:10:20.168Z,17.39
2022-12-19T22:16:47.135Z,17.41
2022-12-19T22:19:22.307Z,17.31
2022-12-19T22:21:51.330Z,17.41
2022-12-19T22:24:25.312Z,17.39
2022-12-19T22:26:54.973Z,17.44
2022-12-19T22:29:23.880Z,17.38
2022-12-19T22:31:55.759Z,17.42
2022-12-19T22:34:31.557Z,17.45
2022-12-19T22:37:09.313Z,17.45
2022-12-19T22:39:38.876Z,17.38
2022-12-19T22:42:09.545Z,17.47
2022-12-19T22:44:38.558Z,17.45
2022-12-19T22:47:23.570Z,17.46
2022-12-19T22:50:03.946Z,17.47
2022-12-19T22:52:32.689Z,17.44
2022-12-19T22:55:00.250Z,17.49
2022-12-19T22:57:33.448Z,17.50
2022-12-19T23:00:13.129Z,17.51
2022-12-19T23:02:42.455Z,17.48
2022-12-19T23:05:24.816Z,17.51
2022-12-19T23:08:08.105Z,17.51
2022-12-19T23:10:42.961Z,17.51
2022-12-19T23:13:11.664Z,17.51
2022-12-19T23:15:45.786Z,17.51
2022-12-19T23:18:16.442Z,17.53
2022-12-19T23:20:44.207Z,17.53
2022-12-19T23:23:13.159Z,17.50
2022-12-19T23:25:42.245Z,17.50
2022-12-19T23:28:10.337Z,17.48
2022-12-19T23:30:39.081Z,17.46
2022-12-19T23:33:08.232Z,17.49
2022-12-19T23:35:35.864Z,17.48
2022-12-19T23:38:03.486Z,17.52
2022-12-19T23:40:37.915Z,17.44
2022-12-19T23:43:07.134Z,17.50
2022-12-19T23:45:39.488Z,17.50
2022-12-19T23:48:20.782Z,17.53
2022-12-19T23:51:00.157Z,17.53
2022-12-19T23:53:27.826Z,17.49
2022-12-19T23:56:07.106Z,17.52
2022-12-19T23:58:36.853Z,17.52
